Time;durP1;ratioP1;P1;durP2;ratioP2;P2;SDS_P1;SDS_P2;PMS_P1;PMS_P2;Temp;Humidity;BMP_temperature;BMP_pressure;BME280_temperature;BME280_humidity;BME280_pressure;Samples;Min_cycle;Max_cycle;Signal;HPM_P1;HPM_P2
2021/03/01 00:02:38;;;;;;;14.25;10.27;;;6.10;91.90;;;;;;4728672;30;20056;-89
2021/03/01 00:06:24;;;;;;;;;;;;;;;;;;;;;
2021/03/01 00:30:40;;;;;;;13.60;10.90;;;5.90;92.00;;;;;;4699015;30;20061;-89
2021/03/01 00:37:56;;;;;;;;;;;;;;;;;;;;;
2021/03/01 00:56:52;;;;;;;;;;;;;;;;;;;;;
2021/03/01 01:00:20;;;;;;;14.20;9.00;;;5.80;92.00;;;;;;4669914;30;20119;-90
2021/03/01 01:13:52;;;;;;;;;;;;;;;;;;;;;
2021/03/01 01:32:45;;;;;;;13.33;8.33;;;5.60;92.00;;;;;;4845875;29;20088;-89
2021/03/01 01:39:42;;;;;;;12.23;8.10;;;5.60;92.00;;;;;;4753727;30;20060;-89
2021/03/01 02:28:44;;;;;;;10.38;7.32;;;5.30;92.00;;;;;;4596456;31;20079;-91
2021/03/01 02:36:13;;;;;;;12.45;7.25;;;5.30;92.10;;;;;;4567766;31;20590;-90
2021/03/01 02:58:41;;;;;;;9.75;7.00;;;5.20;92.20;;;;;;4770690;30;20050;-90
2021/03/01 03:05:43;;;;;;;9.88;7.15;;;5.20;92.20;;;;;;4752465;30;20391;-90
2021/03/01 03:08:47;;;;;;;;;;;;;;;;;;;;;
2021/03/01 03:12:55;;;;;;;;;;;;;;;;;;;;;
2021/03/01 03:16:38;;;;;;;9.43;6.55;;;5.20;92.20;;;;;;4628632;30;20143;-90
2021/03/01 12:54:24;;;;;;;8.15;3.90;;;9.50;90.40;;;;;;6111698;23;20092;-90
2021/03/01 12:57:10;;;;;;;8.25;3.80;;;9.50;90.10;;;;;;6128748;23;20034;-88
2021/03/01 12:59:40;;;;;;;8.15;3.90;;;9.60;90.00;;;;;;6127599;23;20017;-90
2021/03/01 13:02:16;;;;;;;;;;;;;;;;;;;;;
2021/03/01 13:05:15;;;;;;;9.05;3.97;;;9.70;89.70;;;;;;6177396;22;20031;-89
2021/03/01 13:07:48;;;;;;;7.63;3.92;;;9.70;89.80;;;;;;6247441;23;20445;-87
2021/03/01 13:11:19;;;;;;;10.05;3.50;;;9.80;90.10;;;;;;6247322;23;20011;-88
2021/03/01 13:13:45;;;;;;;8.07;3.63;;;9.80;89.50;;;;;;6246760;23;20012;-88
2021/03/01 13:23:19;;;;;;;7.70;3.83;;;10.00;89.00;;;;;;6247287;23;20451;-88
2021/03/01 13:25:50;;;;;;;10.07;5.22;;;10.10;89.60;;;;;;6247137;23;20016;-88
2021/03/01 13:28:16;;;;;;;8.48;3.83;;;10.20;88.90;;;;;;6246553;23;20066;-89
2021/03/01 13:31:22;;;;;;;8.68;4.20;;;10.20;88.80;;;;;;6247464;23;20079;-89
2021/03/01 13:33:58;;;;;;;10.00;4.00;;;10.30;89.10;;;;;;6246660;23;20027;-88
2021/03/01 13:36:30;;;;;;;8.60;4.32;;;10.30;88.70;;;;;;6247100;23;20336;-88
2021/03/01 13:39:04;;;;;;;9.73;4.63;;;10.30;88.30;;;;;;6247407;23;20027;-88
2021/03/01 13:41:45;;;;;;;10.52;4.93;;;10.40;88.30;;;;;;6247201;23;20028;-87
2021/03/01 13:44:36;;;;;;;9.13;4.18;;;10.40;88.30;;;;;;6219387;22;20090;-88
2021/03/01 13:47:17;;;;;;;8.10;4.13;;;10.40;88.20;;;;;;6247399;23;20031;-88
2021/03/01 13:49:49;;;;;;;8.18;4.05;;;10.50;88.00;;;;;;6246380;23;20044;-88
2021/03/01 13:52:39;;;;;;;8.13;4.28;;;10.50;87.70;;;;;;6247042;23;20020;-88
2021/03/01 13:55:12;;;;;;;8.73;4.90;;;10.50;87.90;;;;;;6246977;23;20016;-89
2021/03/01 14:01:07;;;;;;;9.63;5.13;;;10.60;87.60;;;;;;6239599;22;20023;-88
2021/03/01 14:03:36;;;;;;;9.70;4.80;;;10.60;87.80;;;;;;6245952;23;20016;-88
2021/03/01 14:06:09;;;;;;;9.05;4.95;;;10.60;87.60;;;;;;6246599;23;20020;-88
2021/03/01 14:08:35;;;;;;;8.90;4.75;;;10.60;87.30;;;;;;6246966;23;20016;-88
2021/03/01 14:11:11;;;;;;;8.98;4.43;;;10.70;87.50;;;;;;6246083;23;20388;-88
2021/03/01 14:14:08;;;;;;;9.15;4.68;;;10.70;87.70;;;;;;6230322;22;20085;-88
2021/03/01 14:16:42;;;;;;;9.55;4.45;;;10.70;87.60;;;;;;6245941;23;20336;-87
2021/03/01 14:19:14;;;;;;;10.88;4.50;;;10.70;87.50;;;;;;6246827;23;20044;-89
2021/03/01 14:21:46;;;;;;;9.70;5.03;;;10.80;87.50;;;;;;6246523;23;20077;-88
2021/03/01 14:24:12;;;;;;;9.68;5.10;;;10.80;87.50;;;;;;6245929;23;20016;-89
2021/03/01 14:26:40;;;;;;;10.50;5.22;;;10.90;87.70;;;;;;6246365;23;20456;-88
2021/03/01 14:29:08;;;;;;;10.88;5.55;;;10.90;88.20;;;;;;6246976;23;20020;-89
2021/03/01 14:31:40;;;;;;;11.20;4.90;;;10.90;88.00;;;;;;6244414;22;20416;-88
2021/03/01 14:34:12;;;;;;;9.25;4.78;;;10.90;88.30;;;;;;6247077;23;20020;-91
2021/03/01 14:40:12;;;;;;;9.13;5.28;;;11.00;88.30;;;;;;6183443;23;20060;-88
2021/03/01 14:42:50;;;;;;;9.50;4.68;;;11.00;88.00;;;;;;6183392;23;20088;-89
2021/03/01 14:46:10;;;;;;;9.52;5.03;;;11.00;88.10;;;;;;6182943;23;20481;-89
2021/03/01 14:48:36;;;;;;;8.38;4.57;;;11.10;88.00;;;;;;6183367;23;20024;-90
2021/03/01 14:51:13;;;;;;;9.93;5.20;;;11.10;88.20;;;;;;6183574;23;20099;-88
2021/03/01 14:53:39;;;;;;;8.80;5.13;;;11.10;87.60;;;;;;6181268;23;20013;-88
2021/03/01 14:56:32;;;;;;;9.82;5.22;;;11.10;87.60;;;;;;6183753;23;20090;-88
2021/03/01 14:58:58;;;;;;;10.77;5.57;;;11.10;87.80;;;;;;6182822;23;20023;-88
2021/03/01 15:01:24;;;;;;;9.95;5.00;;;11.10;88.00;;;;;;6183987;23;20092;-89
2021/03/01 15:04:30;;;;;;;9.93;5.15;;;11.10;87.70;;;;;;6126545;23;20107;-89
2021/03/01 15:07:35;;;;;;;10.45;5.25;;;11.20;87.90;;;;;;6156091;23;20138;-89
2021/03/01 15:10:15;;;;;;;10.13;5.50;;;11.10;87.70;;;;;;6194830;23;20020;-89
2021/03/01 15:12:50;;;;;;;9.75;5.78;;;11.10;87.90;;;;;;6245970;23;20091;-89
2021/03/01 15:15:19;;;;;;;10.23;5.43;;;11.10;87.90;;;;;;6246051;23;20016;-89
2021/03/01 15:17:44;;;;;;;9.65;5.53;;;11.20;87.90;;;;;;6245611;23;20142;-88
2021/03/01 15:20:10;;;;;;;9.57;5.35;;;11.20;87.90;;;;;;6245439;23;20448;-89
2021/03/01 15:22:58;;;;;;;9.98;5.82;;;11.20;88.10;;;;;;6219914;23;20016;-88
2021/03/01 15:25:36;;;;;;;9.30;5.72;;;11.20;87.80;;;;;;6246344;23;20020;-88
2021/03/01 15:28:02;;;;;;;9.00;5.55;;;11.20;87.90;;;;;;6244908;23;20023;-88
2021/03/01 15:30:32;;;;;;;10.60;6.05;;;11.20;88.30;;;;;;6246489;23;20067;-88
2021/03/01 15:33:07;;;;;;;11.52;6.35;;;11.20;88.30;;;;;;6246302;23;20087;-88
2021/03/01 15:35:42;;;;;;;12.95;6.65;;;11.20;88.50;;;;;;6245563;23;20099;-88
2021/03/01 15:38:42;;;;;;;10.40;6.28;;;11.20;88.60;;;;;;6246412;23;20020;-88
2021/03/01 15:41:08;;;;;;;12.20;6.45;;;11.20;88.80;;;;;;6244838;23;20081;-88
2021/03/01 15:43:35;;;;;;;11.45;6.47;;;11.20;88.60;;;;;;6246380;23;20401;-88
2021/03/01 15:46:01;;;;;;;13.00;6.93;;;11.20;88.70;;;;;;6246419;23;20040;-89
2021/03/01 15:48:26;;;;;;;11.35;6.88;;;11.20;88.30;;;;;;6245482;23;20027;-89
2021/03/01 15:50:53;;;;;;;11.60;7.55;;;11.20;88.20;;;;;;6246273;23;20018;-89
2021/03/01 15:53:37;;;;;;;12.68;7.45;;;11.20;88.00;;;;;;6246426;23;20091;-89
2021/03/01 15:56:21;;;;;;;13.00;7.75;;;11.20;88.30;;;;;;6245701;23;20018;-89
2021/03/01 15:58:46;;;;;;;;;;;11.20;88.50;;;;;;6246017;23;20444;-89
2021/03/01 16:01:27;;;;;;;13.32;7.60;;;11.20;88.50;;;;;;6246585;23;19962;-88
2021/03/01 16:04:08;;;;;;;15.57;7.93;;;11.20;88.80;;;;;;6245917;23;20017;-88
2021/03/01 16:06:39;;;;;;;14.57;8.00;;;11.20;88.90;;;;;;6245809;23;20021;-89
2021/03/01 16:09:10;;;;;;;13.15;8.10;;;11.20;88.50;;;;;;6245679;23;20379;-89
2021/03/01 16:11:41;;;;;;;15.20;8.55;;;11.20;88.60;;;;;;6246412;23;20345;-89
2021/03/01 16:14:10;;;;;;;11.68;7.60;;;11.20;89.10;;;;;;6246399;23;20023;-89
2021/03/01 16:20:09;;;;;;;13.32;7.78;;;11.20;89.70;;;;;;6246312;23;20035;-89
2021/03/01 16:22:49;;;;;;;13.07;7.22;;;11.20;89.90;;;;;;6246757;23;20016;-88
2021/03/01 16:25:33;;;;;;;14.68;7.93;;;11.10;89.20;;;;;;6247104;23;20074;-89
2021/03/01 16:28:15;;;;;;;13.82;8.25;;;11.10;88.60;;;;;;6247773;23;20330;-86
2021/03/01 16:42:51;;;;;;;14.38;8.15;;;10.90;90.00;;;;;;6278798;22;20012;-91
2021/03/01 16:49:15;;;;;;;15.30;8.10;;;10.90;90.30;;;;;;6128152;23;20448;-90
2021/03/01 16:52:12;;;;;;;13.63;8.55;;;10.80;90.50;;;;;;6124976;23;20037;-94
2021/03/01 16:55:32;;;;;;;15.13;8.30;;;10.90;90.60;;;;;;6278939;22;20016;-92
2021/03/01 16:58:33;;;;;;;14.75;8.43;;;10.80;90.70;;;;;;6154717;23;20516;-91
2021/03/01 17:08:34;;;;;;;13.63;7.93;;;10.70;90.30;;;;;;6154698;23;20501;-91
2021/03/01 17:22:12;;;;;;;13.98;7.80;;;10.50;90.30;;;;;;6278155;22;20317;-90
2021/03/01 17:44:53;;;;;;;12.30;7.78;;;10.30;90.80;;;;;;6208001;22;20392;-89
2021/03/01 18:01:35;;;;;;;14.20;8.10;;;10.10;91.10;;;;;;6246904;23;20448;-91
2021/03/01 18:05:01;;;;;;;14.55;8.98;;;10.00;91.10;;;;;;6189623;23;20016;-89
2021/03/01 18:08:21;;;;;;;;;;;;;;;;;;;;;
2021/03/01 18:11:34;;;;;;;15.55;8.60;;;9.90;91.20;;;;;;6247278;23;20020;-89
2021/03/01 19:41:05;;;;;;;17.58;10.43;;;8.20;91.00;;;;;;6240569;22;20094;-89
2021/03/01 19:47:00;;;;;;;15.18;10.40;;;8.10;91.10;;;;;;6211333;23;20070;-88
2021/03/01 19:49:50;;;;;;;17.50;10.70;;;8.10;91.20;;;;;;6245453;22;20078;-90
2021/03/01 19:52:34;;;;;;;17.45;10.65;;;8.10;91.20;;;;;;6124334;23;20101;-90
2021/03/01 19:55:18;;;;;;;16.33;11.30;;;8.00;91.20;;;;;;6123388;23;20021;-87
2021/03/01 19:58:35;;;;;;;17.85;11.13;;;8.00;91.00;;;;;;6124293;23;20018;-90
2021/03/01 20:01:17;;;;;;;18.00;11.38;;;7.90;91.00;;;;;;6009144;23;20024;-92
2021/03/01 20:03:51;;;;;;;17.15;11.57;;;7.80;91.40;;;;;;6126086;23;20348;-91
2021/03/01 20:06:42;;;;;;;16.55;11.18;;;7.80;91.20;;;;;;6126294;23;20034;-88
2021/03/01 20:09:48;;;;;;;18.40;11.57;;;7.70;91.00;;;;;;6102491;23;20347;-90
2021/03/01 20:12:19;;;;;;;18.55;11.48;;;7.70;91.20;;;;;;6128461;23;20026;-88
2021/03/01 20:15:14;;;;;;;19.58;12.05;;;7.60;91.10;;;;;;6128287;23;20014;-88
2021/03/01 20:21:07;;;;;;;19.25;12.68;;;7.60;91.10;;;;;;5978290;24;20476;-89
2021/03/01 20:23:42;;;;;;;17.55;12.25;;;7.60;91.10;;;;;;6091861;23;20073;-89
2021/03/01 20:26:36;;;;;;;19.90;13.05;;;7.50;91.10;;;;;;6126172;23;20021;-88
2021/03/01 20:29:25;;;;;;;18.20;13.07;;;7.50;91.10;;;;;;6125204;23;20097;-90
2021/03/01 20:35:58;;;;;;;18.73;13.05;;;7.40;91.20;;;;;;6026117;23;20102;-87
2021/03/01 20:38:49;;;;;;;21.15;14.30;;;7.40;91.30;;;;;;6067493;23;20055;-88
2021/03/01 20:41:15;;;;;;;21.52;13.48;;;7.30;91.30;;;;;;6043953;22;20017;-89
2021/03/01 20:43:54;;;;;;;21.58;13.93;;;7.30;91.20;;;;;;6246767;23;20016;-90
2021/03/01 20:47:20;;;;;;;;;;;;;;;;;;;;;
2021/03/01 20:54:17;;;;;;;23.10;15.25;;;7.20;91.40;;;;;;5953823;24;20393;-92
2021/03/01 20:56:54;;;;;;;19.98;14.65;;;7.20;91.40;;;;;;6204795;22;20082;-90
2021/03/01 20:59:23;;;;;;;22.05;14.68;;;7.20;91.40;;;;;;6246585;23;20372;-88
2021/03/01 21:04:20;;;;;;;21.73;14.52;;;7.10;91.40;;;;;;6246824;22;20440;-90
2021/03/01 21:07:08;;;;;;;19.48;14.15;;;7.10;91.40;;;;;;6248094;23;20036;-90
2021/03/01 21:10:03;;;;;;;22.27;15.68;;;7.10;91.40;;;;;;6247906;23;20012;-88
2021/03/01 21:12:54;;;;;;;21.77;15.50;;;7.10;91.50;;;;;;6246791;23;20028;-89
2021/03/01 21:16:04;;;;;;;21.52;15.02;;;7.10;91.50;;;;;;6247741;22;20051;-93
2021/03/01 21:18:58;;;;;;;21.05;15.40;;;7.00;91.40;;;;;;6238942;23;20027;-89
2021/03/01 21:21:36;;;;;;;23.83;16.13;;;7.00;91.40;;;;;;6247565;23;20360;-88
2021/03/01 21:24:36;;;;;;;21.90;15.90;;;7.00;91.60;;;;;;6247954;23;20035;-88
2021/03/01 21:27:18;;;;;;;22.15;16.25;;;7.00;91.50;;;;;;6095761;23;20022;-90
2021/03/01 21:30:08;;;;;;;22.55;15.85;;;7.00;91.60;;;;;;6133492;23;20026;-95
2021/03/01 21:32:54;;;;;;;21.70;15.82;;;6.90;91.60;;;;;;6154408;23;20044;-90
2021/03/01 21:35:20;;;;;;;24.00;16.45;;;7.00;91.60;;;;;;6154898;23;20110;-88
2021/03/01 21:37:49;;;;;;;23.85;15.30;;;6.90;91.50;;;;;;6154562;23;20017;-88
2021/03/01 21:40:31;;;;;;;21.13;15.55;;;6.90;91.60;;;;;;6153956;23;20021;-92
2021/03/01 21:42:58;;;;;;;22.65;16.33;;;6.90;91.50;;;;;;6154774;23;20117;-88
2021/03/01 21:45:35;;;;;;;22.95;16.27;;;6.90;91.50;;;;;;6154677;23;20017;-90
2021/03/01 21:48:12;;;;;;;23.25;15.77;;;6.80;91.50;;;;;;6153961;23;20038;-88
2021/03/01 21:50:39;;;;;;;22.70;16.25;;;6.80;91.60;;;;;;6154767;23;20021;-90
2021/03/01 21:59:22;;;;;;;23.52;16.75;;;6.80;91.60;;;;;;6242453;22;20020;-90
2021/03/01 22:02:11;;;;;;;25.63;17.67;;;6.80;91.50;;;;;;6246921;23;20017;-87
2021/03/01 22:05:49;;;;;;;;;;;;;;;;;;;;;
2021/03/01 22:08:40;;;;;;;26.30;17.27;;;6.70;91.50;;;;;;6014132;23;20013;-89
2021/03/01 22:11:18;;;;;;;23.67;16.83;;;6.70;91.90;;;;;;6112739;23;20030;-90
2021/03/01 22:13:48;;;;;;;24.58;17.40;;;6.70;91.60;;;;;;6247341;23;20016;-88
2021/03/01 22:16:14;;;;;;;28.50;18.10;;;6.70;91.60;;;;;;6246345;23;20070;-90
2021/03/01 22:24:21;;;;;;;28.88;19.25;;;6.60;91.70;;;;;;6246351;22;20020;-88
2021/03/01 22:27:16;;;;;;;24.42;17.77;;;6.60;91.60;;;;;;6246079;23;20034;-88
2021/03/01 22:30:57;;;;;;;26.30;18.20;;;6.60;91.60;;;;;;6180067;23;20016;-88
2021/03/01 22:34:03;;;;;;;26.85;18.48;;;6.50;91.60;;;;;;6244488;22;20456;-89
2021/03/01 22:36:34;;;;;;;28.20;18.77;;;6.50;91.70;;;;;;6245949;23;20448;-90
2021/03/01 22:39:14;;;;;;;29.73;18.88;;;6.50;91.70;;;;;;6247205;23;20019;-89
2021/03/01 22:41:56;;;;;;;30.35;19.60;;;6.50;91.70;;;;;;6228564;23;20020;-89
2021/03/01 22:44:46;;;;;;;29.27;20.10;;;6.60;91.80;;;;;;6246187;23;20016;-89
2021/03/01 22:47:14;;;;;;;31.88;21.23;;;6.60;91.80;;;;;;6246937;23;20020;-88
2021/03/01 22:49:45;;;;;;;31.98;20.88;;;6.50;91.70;;;;;;6245500;23;20375;-89
2021/03/01 22:52:14;;;;;;;31.15;21.52;;;6.50;91.80;;;;;;6246725;23;20471;-88
2021/03/01 22:54:59;;;;;;;35.05;21.55;;;6.50;91.80;;;;;;6246755;23;20103;-88
2021/03/01 22:57:30;;;;;;;30.45;21.58;;;6.50;91.80;;;;;;6243790;22;20020;-89
2021/03/01 23:00:07;;;;;;;33.88;22.10;;;6.50;91.70;;;;;;6244975;23;20341;-91
2021/03/01 23:02:33;;;;;;;30.00;20.50;;;6.50;91.70;;;;;;6247131;23;20012;-89
2021/03/01 23:05:11;;;;;;;33.20;21.45;;;6.50;91.70;;;;;;6245892;23;20016;-89
2021/03/01 23:07:40;;;;;;;31.73;21.77;;;6.50;91.80;;;;;;6245465;23;20023;-89
2021/03/01 23:10:14;;;;;;;36.08;22.63;;;6.50;91.70;;;;;;6246051;23;20476;-88
2021/03/01 23:12:49;;;;;;;34.42;22.83;;;6.40;91.80;;;;;;6245249;23;20452;-88
2021/03/01 23:15:15;;;;;;;35.13;22.30;;;6.40;91.70;;;;;;6246586;23;20016;-90
2021/03/01 23:21:04;;;;;;;34.75;22.80;;;6.40;91.70;;;;;;6095299;23;20183;-90
2021/03/01 23:23:30;;;;;;;33.28;22.65;;;6.30;91.60;;;;;;6095114;23;20045;-89
2021/03/01 23:26:13;;;;;;;36.33;22.83;;;6.30;91.60;;;;;;6094114;23;20022;-90
2021/03/01 23:28:50;;;;;;;36.97;22.30;;;6.30;91.70;;;;;;6149874;22;20012;-88
2021/03/01 23:31:49;;;;;;;38.83;22.85;;;6.30;91.70;;;;;;6236663;22;20024;-89
2021/03/01 23:34:22;;;;;;;37.15;23.50;;;6.20;91.60;;;;;;6249714;22;20028;-89
2021/03/01 23:37:02;;;;;;;36.38;23.88;;;6.20;91.60;;;;;;6256097;23;20016;-90
2021/03/01 23:39:43;;;;;;;35.33;22.77;;;6.20;91.80;;;;;;6248189;23;20016;-91
2021/03/01 23:44:54;;;;;;;38.30;24.25;;;6.20;91.80;;;;;;6214899;23;20507;-88
2021/03/01 23:47:37;;;;;;;42.92;25.15;;;6.20;91.80;;;;;;6217296;23;20021;-90
2021/03/01 23:50:11;;;;;;;37.13;23.92;;;6.20;91.70;;;;;;6218363;23;20067;-89
2021/03/01 23:52:46;;;;;;;35.38;24.23;;;6.20;91.80;;;;;;6218028;23;20464;-89
2021/03/01 23:55:16;;;;;;;37.03;23.42;;;6.20;91.80;;;;;;6217214;23;20028;-91
2021/03/01 23:57:57;;;;;;;41.17;24.85;;;6.20;91.70;;;;;;6218066;23;20069;-91
